Time;durP1;ratioP1;P1;durP2;ratioP2;P2;SDS_P1;SDS_P2;PMS_P1;PMS_P2;Temp;Humidity;BMP_temperature;BMP_pressure;BME280_temperature;BME280_humidity;BME280_pressure;Samples;Min_cycle;Max_cycle;Signal;HPM_P1;HPM_P2
2023/03/12 00:00:58;;;;;;;;;;;;;;;-0.13;82.97;100005.98;106121;1291;73887;-84
2023/03/12 00:04:06;;;;;;;;;;;;;;;-0.13;82.98;100002.27;105934;1291;59365;-84
2023/03/12 00:07:12;;;;;;;;;;;;;;;-0.12;82.97;100004.31;105453;1290;59049;-84
2023/03/12 00:10:02;;;;;;;;;;;;;;;-0.13;82.90;100002.44;105383;1290;73430;-84
2023/03/12 00:13:08;;;;;;;;;;;;;;;-0.14;82.94;99996.48;106025;1290;68033;-84
2023/03/12 00:16:14;;;;;;;;;;;;;;;-0.14;82.94;100002.08;105916;1291;71398;-84
2023/03/12 00:19:05;;;;;;;;;;;;;;;-0.15;82.95;100007.15;105877;1289;59092;-84
2023/03/12 00:21:51;;;;;;;;;;;;;;;-0.14;83.01;100016.98;105483;1289;61397;-84
2023/03/12 00:24:38;;;;;;;;;;;;;;;-0.13;83.00;100019.70;105280;1291;73277;-83
2023/03/12 00:27:44;;;;;;;;;;;;;;;-0.11;83.01;100020.24;105355;1289;70520;-84
2023/03/12 00:30:52;;;;;;;;;;;;;;;-0.09;83.03;100019.60;105249;1290;74042;-84
2023/03/12 00:33:58;;;;;;;;;;;;;;;-0.09;83.01;100019.44;105370;1292;61109;-84
2023/03/12 00:37:24;;;;;;;;;;;;;;;-0.08;83.10;100021.84;105452;1291;62348;-84
2023/03/12 00:40:49;;;;;;;;;;;;;;;-0.05;83.05;100022.06;105360;1292;74321;-84
2023/03/12 00:43:59;;;;;;;;;;;;;;;-0.01;83.11;100028.05;105364;1291;67281;-85
2023/03/12 00:47:25;;;;;;;;;;;;;;;0.05;83.13;100030.49;105432;1290;72122;-84
2023/03/12 00:50:33;;;;;;;;;;;;;;;0.10;83.08;100033.45;105336;1294;60064;-85
2023/03/12 00:53:39;;;;;;;;;;;;;;;0.16;83.03;100030.17;105831;1291;59114;-84
2023/03/12 00:57:05;;;;;;;;;;;;;;;0.22;83.12;100031.28;105309;1291;73313;-84
2023/03/12 01:00:31;;;;;;;;;;;;;;;0.26;83.10;100028.47;105927;1291;67442;-84
2023/03/12 01:03:58;;;;;;;;;;;;;;;0.30;82.98;100027.36;105335;1291;71402;-84
2023/03/12 01:07:12;;;;;;;;;;;;;;;0.33;83.04;100025.88;105803;1291;58999;-84
2023/03/12 01:10:38;;;;;;;;;;;;;;;0.37;83.02;100022.37;105334;1291;61356;-84
2023/03/12 01:14:03;;;;;;;;;;;;;;;0.39;82.99;100019.86;105425;1290;74413;-84
2023/03/12 01:17:11;;;;;;;;;;;;;;;0.39;82.95;100023.25;105365;1290;68320;-84
2023/03/12 01:20:37;;;;;;;;;;;;;;;0.38;82.94;100021.54;105361;1289;71325;-84
2023/03/12 01:23:39;;;;;;;;;;;;;;;0.39;82.99;100020.02;105957;1291;59235;-84
2023/03/12 01:26:54;;;;;;;;;;;;;;;0.38;82.92;100016.96;105417;1289;61977;-84
2023/03/12 01:30:07;;;;;;;;;;;;;;;0.38;82.94;100016.63;105834;1291;73477;-84
2023/03/12 01:33:13;;;;;;;;;;;;;;;0.40;82.97;100018.18;105443;1289;67348;-84
2023/03/12 01:36:20;;;;;;;;;;;;;;;0.42;83.00;100018.04;105282;1292;73518;-84
2023/03/12 01:39:45;;;;;;;;;;;;;;;0.43;82.96;100015.34;105333;1289;61511;-83
2023/03/12 01:42:52;;;;;;;;;;;;;;;0.45;82.95;100015.71;105420;1291;61135;-84
2023/03/12 01:46:17;;;;;;;;;;;;;;;0.46;82.96;100009.45;105325;1289;75050;-83
2023/03/12 01:49:29;;;;;;;;;;;;;;;0.48;82.99;100013.56;105285;1291;67886;-84
2023/03/12 01:52:37;;;;;;;;;;;;;;;0.52;82.98;100016.48;105354;1290;72561;-83
2023/03/12 01:55:51;;;;;;;;;;;;;;;0.55;82.98;100015.00;105432;1291;59342;-84
2023/03/12 01:59:05;;;;;;;;;;;;;;;0.57;83.02;100010.95;105393;1292;61451;-83
2023/03/12 02:02:15;;;;;;;;;;;;;;;0.59;83.05;100013.36;105375;1292;73155;-85
2023/03/12 02:05:34;;;;;;;;;;;;;;;0.61;82.99;100018.98;105380;1292;67192;-83
2023/03/12 02:08:40;;;;;;;;;;;;;;;0.63;82.97;100009.00;105092;1291;71232;-83
2023/03/12 02:12:06;;;;;;;;;;;;;;;0.64;82.91;100018.52;105369;1291;59697;-84
2023/03/12 02:15:12;;;;;;;;;;;;;;;0.66;82.97;100018.04;105381;1289;59091;-83
2023/03/12 02:18:22;;;;;;;;;;;;;;;0.67;82.92;100012.27;105316;1290;73186;-83
2023/03/12 02:21:44;;;;;;;;;;;;;;;0.67;82.94;100015.33;105433;1290;69397;-83
2023/03/12 02:24:54;;;;;;;;;;;;;;;0.68;82.95;100012.63;105399;1293;71441;-84
2023/03/12 02:28:17;;;;;;;;;;;;;;;0.68;82.88;100011.80;105443;1291;59260;-84
2023/03/12 02:31:23;;;;;;;;;;;;;;;0.67;82.91;100013.14;105408;1291;61173;-83
2023/03/12 02:34:49;;;;;;;;;;;;;;;0.65;82.87;100018.36;105309;1290;76207;-84
2023/03/12 02:37:56;;;;;;;;;;;;;;;0.64;82.88;100021.73;105357;1291;67436;-84
2023/03/12 02:41:20;;;;;;;;;;;;;;;0.62;82.83;100026.63;105356;1289;73229;-84
2023/03/12 02:44:30;;;;;;;;;;;;;;;0.62;82.90;100023.91;105394;1294;59113;-84
2023/03/12 02:47:56;;;;;;;;;;;;;;;0.61;82.93;100028.30;105377;1292;59772;-83
2023/03/12 02:51:02;;;;;;;;;;;;;;;0.59;82.82;100032.86;105322;1290;73239;-84
2023/03/12 02:54:28;;;;;;;;;;;;;;;0.56;82.81;100036.73;105348;1290;67423;-84
2023/03/12 02:57:22;;;;;;;;;;;;;;;0.54;82.90;100041.59;105348;1291;71155;-84
2023/03/12 03:00:36;;;;;;;;;;;;;;;0.50;82.81;100036.99;105254;1291;61151;-84
2023/03/12 03:03:44;;;;;;;;;;;;;;;0.47;82.82;100044.73;105300;1291;59730;-84
2023/03/12 03:06:31;;;;;;;;;;;;;;;0.43;82.76;100044.16;105238;1290;74165;-84
2023/03/12 03:09:41;;;;;;;;;;;;;;;0.39;82.80;100049.52;105216;1292;68798;-84
2023/03/12 03:12:47;;;;;;;;;;;;;;;0.37;82.77;100058.15;105239;1291;71783;-84
2023/03/12 03:15:58;;;;;;;;;;;;;;;0.36;82.83;100064.06;105286;1292;59364;-84
2023/03/12 03:18:52;;;;;;;;;;;;;;;0.35;82.84;100061.33;105309;1292;59957;-84
2023/03/12 03:21:58;;;;;;;;;;;;;;;0.32;82.85;100062.31;105155;1291;72208;-84
2023/03/12 03:25:24;;;;;;;;;;;;;;;0.30;82.86;100071.42;105373;1291;70131;-84
2023/03/12 03:28:14;;;;;;;;;;;;;;;0.28;82.84;100080.20;105356;1291;72443;-84
2023/03/12 03:31:21;;;;;;;;;;;;;;;0.27;82.84;100079.52;105261;1290;59710;-84
2023/03/12 03:34:27;;;;;;;;;;;;;;;0.27;82.88;100081.71;105293;1292;61379;-83
2023/03/12 03:37:41;;;;;;;;;;;;;;;0.26;82.83;100081.34;105289;1290;74082;-83
2023/03/12 03:40:51;;;;;;;;;;;;;;;0.24;82.86;100080.48;106077;1291;67441;-84
2023/03/12 03:43:57;;;;;;;;;;;;;;;0.24;82.78;100089.96;106028;1291;71777;-84
2023/03/12 03:46:54;;;;;;;;;;;;;;;0.26;82.85;100096.77;106035;1291;59039;-84
2023/03/12 03:50:00;;;;;;;;;;;;;;;0.29;82.89;100096.98;105940;1291;60090;-84
2023/03/12 03:53:06;;;;;;;;;;;;;;;0.33;82.85;100107.58;106075;1291;73436;-84
2023/03/12 03:56:12;;;;;;;;;;;;;;;0.36;82.91;100107.30;106125;1291;67373;-84
2023/03/12 03:59:19;;;;;;;;;;;;;;;0.41;82.84;100105.85;106022;1292;71361;-83
2023/03/12 04:02:09;;;;;;;;;;;;;;;0.45;82.87;100114.73;105405;1289;61093;-84
2023/03/12 04:04:58;;;;;;;;;;;;;;;0.48;82.86;100126.83;105250;1289;60424;-83
2023/03/12 04:08:24;;;;;;;;;;;;;;;0.51;82.93;100133.48;105244;1290;74773;-84
2023/03/12 04:11:30;;;;;;;;;;;;;;;0.50;82.97;100130.42;105371;1292;67223;-86
2023/03/12 04:14:33;;;;;;;;;;;;;;;0.47;83.09;100140.21;105391;1290;74001;-84
2023/03/12 04:17:40;;;;;;;;;;;;;;;0.46;83.16;100140.36;106073;1292;59058;-84
2023/03/12 04:21:08;;;;;;;;;;;;;;;0.45;83.19;100143.06;105371;1291;59515;-84
2023/03/12 04:24:15;;;;;;;;;;;;;;;0.43;83.13;100144.04;105434;1291;73264;-83
2023/03/12 04:27:22;;;;;;;;;;;;;;;0.42;83.05;100140.63;105290;1291;69996;-84
2023/03/12 04:30:48;;;;;;;;;;;;;;;0.40;83.09;100148.73;105386;1289;71107;-84
2023/03/12 04:33:36;;;;;;;;;;;;;;;0.39;82.96;100149.55;106098;1291;59161;-84
2023/03/12 04:36:24;;;;;;;;;;;;;;;0.36;82.90;100149.84;106125;1290;59933;-84
2023/03/12 04:39:28;;;;;;;;;;;;;;;0.30;82.78;100156.69;106017;1291;73166;-84
2023/03/12 04:42:34;;;;;;;;;;;;;;;0.27;82.74;100165.79;105522;1289;67571;-83
2023/03/12 04:45:41;;;;;;;;;;;;;;;0.25;82.72;100164.56;105393;1291;71233;-84
2023/03/12 04:48:35;;;;;;;;;;;;;;;0.22;82.66;100164.34;105292;1295;60066;-83
2023/03/12 04:51:26;;;;;;;;;;;;;;;0.19;82.64;100163.42;105458;1291;61732;-83
2023/03/12 04:54:12;;;;;;;;;;;;;;;0.15;82.58;100166.23;105366;1292;77441;-84
2023/03/12 04:57:18;;;;;;;;;;;;;;;0.11;82.56;100168.52;105392;1292;68830;-84
2023/03/12 05:00:25;;;;;;;;;;;;;;;0.06;82.60;100174.19;105406;1292;71852;-84
2023/03/12 05:03:31;;;;;;;;;;;;;;;0.00;82.57;100179.52;105424;1290;59653;-84
2023/03/12 05:06:38;;;;;;;;;;;;;;;-0.04;82.54;100186.75;106111;1291;59719;-84
2023/03/12 05:09:26;;;;;;;;;;;;;;;-0.07;82.50;100192.80;106119;1290;73389;-84
2023/03/12 05:12:12;;;;;;;;;;;;;;;-0.09;82.43;100198.50;106029;1291;67714;-84
2023/03/12 05:15:06;;;;;;;;;;;;;;;-0.12;82.45;100206.07;105307;1293;72366;-84
2023/03/12 05:18:31;;;;;;;;;;;;;;;-0.14;82.46;100213.64;105015;1295;61053;-83
2023/03/12 05:21:57;;;;;;;;;;;;;;;-0.17;82.36;100217.82;105022;1295;61203;-84
2023/03/12 05:25:04;;;;;;;;;;;;;;;-0.19;82.45;100215.41;105046;1294;73729;-83
2023/03/12 05:27:50;;;;;;;;;;;;;;;-0.21;82.38;100222.96;105402;1297;69174;-84
2023/03/12 05:30:56;;;;;;;;;;;;;;;-0.23;82.41;100234.97;104991;1295;71192;-84
2023/03/12 05:33:48;;;;;;;;;;;;;;;-0.24;82.36;100243.42;105064;1294;59592;-84
2023/03/12 05:37:14;;;;;;;;;;;;;;;-0.25;82.39;100247.10;104976;1295;61154;-84
2023/03/12 05:40:40;;;;;;;;;;;;;;;-0.24;82.40;100250.02;104950;1297;72766;-83
2023/03/12 05:43:47;;;;;;;;;;;;;;;-0.23;82.41;100250.56;104984;1294;67224;-83
2023/03/12 05:46:49;;;;;;;;;;;;;;;-0.20;82.41;100251.79;104983;1295;72317;-83
2023/03/12 05:49:35;;;;;;;;;;;;;;;-0.20;82.39;100255.87;105232;1290;61108;-83
2023/03/12 05:52:22;;;;;;;;;;;;;;;-0.17;82.37;100258.98;105595;1291;59227;-84
2023/03/12 05:55:12;;;;;;;;;;;;;;;-0.10;82.38;100262.69;105277;1294;75125;-83
2023/03/12 05:58:18;;;;;;;;;;;;;;;0.04;82.50;100263.63;105258;1291;67440;-84
2023/03/12 06:01:39;;;;;;;;;;;;;;;0.25;82.62;100272.02;105383;1291;71301;-84
2023/03/12 06:05:05;;;;;;;;;;;;;;;0.54;82.72;100275.48;105311;1290;59397;-83
2023/03/12 06:07:52;;;;;;;;;;;;;;;0.99;82.82;100272.86;105382;1294;61276;-83
2023/03/12 06:10:58;;;;;;;;;;;;;;;1.56;82.78;100271.03;101486;1292;5167295;-83
2023/03/12 06:13:46;;;;;;;;;;;;;;;2.15;82.59;100273.34;105363;1292;69221;-83
2023/03/12 06:16:33;;;;;;;;;;;;;;;2.53;82.63;100270.20;105141;1291;75817;-83
2023/03/12 06:19:22;;;;;;;;;;;;;;;2.94;82.66;100265.66;105194;1290;60081;-84
2023/03/12 06:22:28;;;;;;;;;;;;;;;3.36;82.52;100263.96;105312;1289;61148;-83
2023/03/12 06:25:15;;;;;;;;;;;;;;;3.93;82.40;100263.96;105399;1291;76055;-83
2023/03/12 06:28:02;;;;;;;;;;;;;;;4.36;82.34;100270.09;105288;1291;69372;-84
2023/03/12 06:30:49;;;;;;;;;;;;;;;4.72;82.11;100272.75;105206;1295;71346;-83
2023/03/12 06:33:43;;;;;;;;;;;;;;;5.03;82.08;100276.05;105256;1295;61068;-84
2023/03/12 06:36:49;;;;;;;;;;;;;;;5.52;82.23;100285.77;105285;1294;59989;-84
2023/03/12 06:39:39;;;;;;;;;;;;;;;5.92;81.75;100289.80;105276;1294;74138;-84
2023/03/12 06:42:25;;;;;;;;;;;;;;;6.40;82.28;100293.23;105270;1292;67121;-83
2023/03/12 06:45:12;;;;;;;;;;;;;;;6.85;81.78;100297.10;105227;1291;71387;-82
2023/03/12 06:47:58;;;;;;;;;;;;;;;7.26;82.19;100296.45;105281;1290;59527;-82
2023/03/12 06:50:44;;;;;;;;;;;;;;;7.69;82.29;100305.17;105434;1291;63597;-82
2023/03/12 06:53:30;;;;;;;;;;;;;;;7.88;81.73;100307.38;105220;1294;73210;-82
2023/03/12 06:56:16;;;;;;;;;;;;;;;7.72;81.85;100306.19;105077;1292;66942;-82
2023/03/12 06:59:03;;;;;;;;;;;;;;;8.02;81.74;100312.21;105087;1290;75408;-82
2023/03/12 07:01:49;;;;;;;;;;;;;;;8.08;81.75;100321.41;105065;1291;61282;-82
2023/03/12 07:04:36;;;;;;;;;;;;;;;7.59;80.85;100314.00;105135;1289;59586;-82
2023/03/12 07:07:22;;;;;;;;;;;;;;;7.53;81.96;100323.84;104732;1290;76011;-82
2023/03/12 07:10:09;;;;;;;;;;;;;;;7.74;81.65;100331.55;105063;1291;68299;-83
2023/03/12 07:12:56;;;;;;;;;;;;;;;7.26;81.52;100326.46;105155;1291;71173;-84
2023/03/12 07:15:44;;;;;;;;;;;;;;;7.15;81.70;100328.10;104868;1289;61187;-84
2023/03/12 07:18:30;;;;;;;;;;;;;;;7.39;81.75;100335.95;104832;1295;61257;-84
2023/03/12 07:21:21;;;;;;;;;;;;;;;7.80;82.07;100330.96;104819;1292;73466;-83
2023/03/12 07:24:08;;;;;;;;;;;;;;;8.16;81.56;100332.31;104951;1294;67702;-83
2023/03/12 07:26:54;;;;;;;;;;;;;;;8.04;81.26;100337.08;104882;1289;71260;-84
2023/03/12 07:29:41;;;;;;;;;;;;;;;7.67;81.55;100332.30;105051;1295;59375;-89
2023/03/12 07:32:27;;;;;;;;;;;;;;;7.76;81.90;100335.80;105035;1289;62909;-83
2023/03/12 07:35:13;;;;;;;;;;;;;;;8.10;82.01;100347.66;105070;1291;73246;-83
2023/03/12 07:37:59;;;;;;;;;;;;;;;8.04;81.49;100344.97;105085;1290;68567;-83
2023/03/12 07:40:49;;;;;;;;;;;;;;;8.21;81.77;100346.34;105033;1295;72479;-83
2023/03/12 07:43:35;;;;;;;;;;;;;;;8.48;81.52;100355.50;105160;1290;61244;-83
2023/03/12 07:46:21;;;;;;;;;;;;;;;8.48;81.15;100354.13;105199;1295;61071;-83
2023/03/12 07:49:07;;;;;;;;;;;;;;;8.51;81.39;100355.80;105143;1291;73618;-84
2023/03/12 07:51:53;;;;;;;;;;;;;;;8.44;81.30;100359.65;105011;1289;67249;-84
2023/03/12 07:54:40;;;;;;;;;;;;;;;8.44;81.26;100359.50;104966;1293;74111;-84
2023/03/12 07:57:26;;;;;;;;;;;;;;;8.53;81.75;100360.25;105008;1295;60045;-84
2023/03/12 08:00:13;;;;;;;;;;;;;;;8.72;81.91;100361.05;104830;1295;59415;-84
2023/03/12 08:02:59;;;;;;;;;;;;;;;9.08;82.39;100361.05;105115;1293;72805;-84
2023/03/12 08:05:54;;;;;;;;;;;;;;;9.24;81.57;100368.05;104953;1292;69191;-83
2023/03/12 08:08:41;;;;;;;;;;;;;;;8.62;80.54;100365.12;105083;1291;70836;-81
2023/03/12 08:11:27;;;;;;;;;;;;;;;7.98;80.63;100373.52;105052;1291;59733;-82
2023/03/12 08:14:13;;;;;;;;;;;;;;;7.68;80.85;100371.06;105139;1289;61189;-81
2023/03/12 08:16:59;;;;;;;;;;;;;;;7.26;80.53;100378.58;105184;1291;73390;-81
2023/03/12 08:19:45;;;;;;;;;;;;;;;6.84;80.72;100385.67;105065;1294;68630;-81
2023/03/12 08:22:31;;;;;;;;;;;;;;;6.90;80.95;100378.45;105137;1292;74034;-81
2023/03/12 08:25:19;;;;;;;;;;;;;;;7.14;80.65;100382.61;105122;1292;62156;-81
2023/03/12 08:28:05;;;;;;;;;;;;;;;6.81;80.14;100391.86;105108;1289;63231;-81
2023/03/12 08:30:53;;;;;;;;;;;;;;;6.59;80.10;100397.61;105178;1290;75941;-81
2023/03/12 08:33:42;;;;;;;;;;;;;;;6.70;79.86;100393.80;105173;1290;67391;-81
2023/03/12 08:36:28;;;;;;;;;;;;;;;6.62;80.08;100398.45;105028;1290;71287;-81
2023/03/12 08:39:14;;;;;;;;;;;;;;;6.66;80.39;100394.34;105004;1290;61070;-81
2023/03/12 08:42:01;;;;;;;;;;;;;;;6.63;80.28;100398.98;105155;1291;61506;-80
2023/03/12 08:44:47;;;;;;;;;;;;;;;6.49;79.69;100405.02;105005;1291;75444;-81
2023/03/12 08:47:33;;;;;;;;;;;;;;;6.28;80.04;100410.54;105033;1289;68888;-80
2023/03/12 08:50:21;;;;;;;;;;;;;;;6.21;80.03;100408.35;105203;1291;71393;-80
2023/03/12 08:53:07;;;;;;;;;;;;;;;6.19;80.00;100416.73;105027;1290;61190;-80
2023/03/12 08:55:54;;;;;;;;;;;;;;;5.99;79.72;100418.30;104967;1292;61180;-80
2023/03/12 08:58:40;;;;;;;;;;;;;;;5.78;79.65;100426.47;104921;1289;73149;-80
2023/03/12 09:01:26;;;;;;;;;;;;;;;5.69;79.52;100427.67;105162;1292;66733;-80
2023/03/12 09:04:12;;;;;;;;;;;;;;;5.47;79.13;100431.08;105174;1292;71197;-80
2023/03/12 09:06:59;;;;;;;;;;;;;;;5.22;78.97;100433.08;104984;1291;61260;-80
2023/03/12 09:09:45;;;;;;;;;;;;;;;5.09;78.96;100433.57;105153;1292;61220;-80
2023/03/12 09:12:31;;;;;;;;;;;;;;;5.00;78.90;100434.05;105049;1294;73428;-80
2023/03/12 09:15:17;;;;;;;;;;;;;;;4.87;79.04;100438.09;105139;1289;66802;-80
2023/03/12 09:18:03;;;;;;;;;;;;;;;4.85;78.99;100440.48;105069;1289;71339;-80
2023/03/12 09:20:50;;;;;;;;;;;;;;;4.90;78.79;100438.45;104954;1291;61359;-80
2023/03/12 09:23:36;;;;;;;;;;;;;;;4.98;78.68;100442.23;105017;1289;59895;-80
2023/03/12 09:26:22;;;;;;;;;;;;;;;5.04;78.69;100440.73;105037;1291;73667;-80
2023/03/12 09:29:08;;;;;;;;;;;;;;;5.03;78.32;100439.17;105065;1289;69059;-80
2023/03/12 09:31:54;;;;;;;;;;;;;;;5.00;78.06;100441.73;105004;1291;72820;-80
2023/03/12 09:34:40;;;;;;;;;;;;;;;4.98;78.19;100436.42;104954;1289;61268;-80
2023/03/12 09:37:27;;;;;;;;;;;;;;;5.04;78.08;100433.90;105104;1289;61199;-80
2023/03/12 09:40:21;;;;;;;;;;;;;;;5.02;77.96;100439.01;105026;1290;74831;-80
2023/03/12 09:43:17;;;;;;;;;;;;;;;4.97;77.83;100439.34;105032;1292;67218;-80
2023/03/12 09:46:08;;;;;;;;;;;;;;;4.92;77.87;100438.96;104977;1289;71816;-80
2023/03/12 09:48:57;;;;;;;;;;;;;;;4.85;77.69;100439.80;104974;1296;61248;-80
2023/03/12 09:51:48;;;;;;;;;;;;;;;4.81;77.63;100438.92;105022;1291;62851;-80
2023/03/12 09:54:40;;;;;;;;;;;;;;;4.88;77.65;100435.71;104951;1290;75307;-80
2023/03/12 09:57:28;;;;;;;;;;;;;;;4.96;77.53;100429.77;104978;1291;71423;-80
2023/03/12 10:00:19;;;;;;;;;;;;;;;4.96;77.27;100432.33;104966;1291;74075;-80
2023/03/12 10:03:32;;;;;;;;;;;;;;;5.03;77.27;100433.04;105044;1294;61151;-80
2023/03/12 10:06:20;;;;;;;;;;;;;;;5.11;77.22;100430.51;104481;1301;59830;-80
2023/03/12 10:09:06;;;;;;;;;;;;;;;5.14;76.83;100435.81;104450;1297;74586;-80
2023/03/12 10:11:58;;;;;;;;;;;;;;;5.12;76.67;100437.52;104434;1297;68349;-80
2023/03/12 10:15:19;;;;;;;;;;;;;;;5.05;76.83;100441.23;104443;1300;72628;-80
2023/03/12 10:18:24;;;;;;;;;;;;;;;5.04;76.40;100442.95;104119;1303;61164;-80
2023/03/12 10:21:20;;;;;;;;;;;;;;;4.97;76.35;100442.75;104440;1297;62214;-83
2023/03/12 10:24:12;;;;;;;;;;;;;;;5.05;76.19;100443.63;104377;1298;72369;-83
2023/03/12 10:27:00;;;;;;;;;;;;;;;5.13;76.44;100449.30;104479;1297;67234;-81
2023/03/12 10:29:50;;;;;;;;;;;;;;;5.13;76.40;100447.77;104316;1297;72642;-86
2023/03/12 10:32:43;;;;;;;;;;;;;;;5.09;76.18;100445.70;104513;1298;59550;-83
2023/03/12 10:35:29;;;;;;;;;;;;;;;5.07;76.17;100442.61;104475;1297;59429;-83
2023/03/12 10:38:26;;;;;;;;;;;;;;;5.13;76.38;100440.93;104503;1297;74419;-86
2023/03/12 10:41:17;;;;;;;;;;;;;;;5.23;76.05;100439.05;104599;1297;67278;-87
2023/03/12 10:44:06;;;;;;;;;;;;;;;5.28;76.07;100445.21;104784;1294;74200;-83
2023/03/12 10:47:16;;;;;;;;;;;;;;;5.29;75.88;100445.73;104888;1290;61176;-83
2023/03/12 10:50:12;;;;;;;;;;;;;;;5.23;75.86;100447.09;104489;1297;59522;-83
2023/03/12 10:53:12;;;;;;;;;;;;;;;5.18;75.81;100452.91;104445;1295;74123;-83
2023/03/12 10:55:59;;;;;;;;;;;;;;;5.12;75.83;100448.61;104588;1296;67553;-83
2023/03/12 10:58:50;;;;;;;;;;;;;;;5.09;75.54;100453.38;104585;1296;72382;-82
2023/03/12 11:01:36;;;;;;;;;;;;;;;5.01;75.29;100459.16;104462;1300;59796;-83
2023/03/12 11:04:27;;;;;;;;;;;;;;;4.95;75.00;100454.52;104423;1296;59666;-83
2023/03/12 11:07:13;;;;;;;;;;;;;;;4.92;74.76;100462.02;104543;1296;73428;-83
2023/03/12 11:10:05;;;;;;;;;;;;;;;4.89;75.06;100456.55;104502;1296;68527;-83
2023/03/12 11:12:51;;;;;;;;;;;;;;;4.87;74.93;100455.85;104589;1296;70234;-82
2023/03/12 11:15:40;;;;;;;;;;;;;;;4.87;74.76;100454.65;104625;1300;59671;-82
2023/03/12 11:18:26;;;;;;;;;;;;;;;4.89;74.58;100453.81;104527;1300;59767;-82
2023/03/12 11:21:14;;;;;;;;;;;;;;;4.92;74.60;100449.90;104642;1296;73471;-83
2023/03/12 11:24:23;;;;;;;;;;;;;;;5.02;74.73;100445.16;104641;1295;67599;-84
2023/03/12 11:27:25;;;;;;;;;;;;;;;5.20;74.81;100444.69;104127;1299;70349;-82
2023/03/12 11:30:15;;;;;;;;;;;;;;;5.38;74.35;100444.21;104348;1300;61319;-83
2023/03/12 11:33:02;;;;;;;;;;;;;;;5.49;74.42;100440.66;104408;1299;61169;-83
2023/03/12 11:35:49;;;;;;;;;;;;;;;5.54;74.36;100431.09;104273;1297;75894;-83
2023/03/12 11:38:55;;;;;;;;;;;;;;;5.55;73.93;100430.41;104370;1300;68097;-83
2023/03/12 11:42:05;;;;;;;;;;;;;;;5.56;74.04;100435.20;104426;1301;71108;-84
2023/03/12 11:45:17;;;;;;;;;;;;;;;5.55;73.96;100423.73;104431;1299;61276;-82
2023/03/12 11:48:12;;;;;;;;;;;;;;;5.54;73.73;100421.52;104311;1299;60046;-82
2023/03/12 11:50:59;;;;;;;;;;;;;;;5.57;73.75;100413.66;104424;1298;75130;-82
2023/03/12 11:54:11;;;;;;;;;;;;;;;5.57;73.68;100414.00;104316;1299;67412;-82
2023/03/12 11:57:16;;;;;;;;;;;;;;;5.57;73.24;100417.94;103942;1306;74149;-83
2023/03/12 12:00:13;;;;;;;;;;;;;;;5.56;73.58;100419.64;103898;1303;61153;-82
2023/03/12 12:03:00;;;;;;;;;;;;;;;5.53;73.56;100416.20;103988;1303;61114;-80
2023/03/12 12:06:06;;;;;;;;;;;;;;;5.54;73.59;100418.77;104504;1295;73231;-80
2023/03/12 12:08:55;;;;;;;;;;;;;;;5.53;73.47;100422.54;104518;1296;66233;-80
2023/03/12 12:12:04;;;;;;;;;;;;;;;5.51;73.37;100421.16;104513;1296;71579;-80
2023/03/12 12:15:09;;;;;;;;;;;;;;;5.50;73.55;100421.00;104590;1296;61241;-80
2023/03/12 12:18:12;;;;;;;;;;;;;;;5.49;73.39;100419.80;104560;1297;61206;-80
2023/03/12 12:21:25;;;;;;;;;;;;;;;5.49;73.04;100422.70;104504;1296;74516;-80
2023/03/12 12:24:13;;;;;;;;;;;;;;;5.51;73.28;100413.98;104495;1300;67335;-80
2023/03/12 12:27:02;;;;;;;;;;;;;;;5.51;73.06;100416.89;104446;1297;71624;-80
2023/03/12 12:29:54;;;;;;;;;;;;;;;5.51;72.83;100412.45;104497;1296;61639;-80
2023/03/12 12:32:59;;;;;;;;;;;;;;;5.49;73.00;100419.63;104530;1296;60384;-80
2023/03/12 12:35:45;;;;;;;;;;;;;;;5.48;72.72;100412.61;105021;1292;73573;-80
2023/03/12 12:38:41;;;;;;;;;;;;;;;5.46;72.99;100416.20;105130;1293;67191;-80
2023/03/12 12:41:31;;;;;;;;;;;;;;;5.47;72.99;100409.37;104989;1289;71254;-80
2023/03/12 12:44:20;;;;;;;;;;;;;;;5.47;72.80;100406.46;105031;1289;61305;-80
2023/03/12 12:47:12;;;;;;;;;;;;;;;5.43;72.83;100408.33;105088;1289;61273;-80
2023/03/12 12:49:59;;;;;;;;;;;;;;;5.43;72.69;100404.05;104960;1291;73420;-80
2023/03/12 12:52:50;;;;;;;;;;;;;;;5.48;72.61;100403.38;105045;1291;71335;-80
2023/03/12 12:55:39;;;;;;;;;;;;;;;5.51;72.31;100400.83;105018;1292;71791;-80
2023/03/12 12:58:43;;;;;;;;;;;;;;;5.54;72.66;100398.27;105013;1291;61203;-80
2023/03/12 13:01:30;;;;;;;;;;;;;;;5.56;72.74;100398.44;105139;1289;61077;-80
2023/03/12 13:04:23;;;;;;;;;;;;;;;5.56;72.55;100399.98;105034;1291;74813;-80
2023/03/12 13:07:12;;;;;;;;;;;;;;;5.55;72.55;100399.30;105024;1291;68647;-80
2023/03/12 13:09:58;;;;;;;;;;;;;;;5.56;72.63;100404.42;105075;1289;71300;-80
2023/03/12 13:12:53;;;;;;;;;;;;;;;5.55;72.48;100405.61;105004;1290;59380;-80
2023/03/12 13:15:42;;;;;;;;;;;;;;;5.53;72.52;100407.50;105002;1289;59797;-80
2023/03/12 13:18:30;;;;;;;;;;;;;;;5.52;72.56;100413.82;104997;1290;73570;-80
2023/03/12 13:21:34;;;;;;;;;;;;;;;5.50;72.34;100410.56;105078;1291;68211;-80
2023/03/12 13:24:28;;;;;;;;;;;;;;;5.47;72.34;100418.09;105000;1294;73604;-80
2023/03/12 13:27:41;;;;;;;;;;;;;;;5.44;72.36;100420.30;105044;1289;61194;-80
2023/03/12 13:30:33;;;;;;;;;;;;;;;5.40;71.98;100411.58;105048;1289;59735;-80
2023/03/12 13:33:35;;;;;;;;;;;;;;;5.37;71.95;100410.54;105066;1291;74566;-80
2023/03/12 13:36:23;;;;;;;;;;;;;;;5.38;71.91;100406.45;104944;1290;67007;-80
2023/03/12 13:39:16;;;;;;;;;;;;;;;5.40;71.73;100409.02;105135;1289;73693;-80
2023/03/12 13:42:20;;;;;;;;;;;;;;;5.42;71.86;100408.16;105204;1289;59873;-80
2023/03/12 13:45:20;;;;;;;;;;;;;;;5.44;71.97;100408.51;105153;1293;61515;-80
2023/03/12 13:48:18;;;;;;;;;;;;;;;5.44;71.87;100412.78;105122;1290;73721;-80
2023/03/12 13:51:10;;;;;;;;;;;;;;;5.45;71.62;100409.02;105018;1290;68297;-80
2023/03/12 13:53:58;;;;;;;;;;;;;;;5.46;71.71;100414.66;104903;1289;71215;-79
2023/03/12 13:57:04;;;;;;;;;;;;;;;5.49;71.53;100420.83;105002;1291;61146;-80
2023/03/12 13:59:51;;;;;;;;;;;;;;;5.51;71.68;100419.29;105175;1293;63213;-80
2023/03/12 14:02:43;;;;;;;;;;;;;;;5.54;71.49;100421.52;105113;1291;73417;-80
2023/03/12 14:05:42;;;;;;;;;;;;;;;5.52;71.45;100421.52;105064;1292;68892;-79
2023/03/12 14:08:34;;;;;;;;;;;;;;;5.51;71.27;100418.27;105039;1291;75432;-82
2023/03/12 14:11:41;;;;;;;;;;;;;;;5.51;71.20;100412.45;105106;1289;60240;-82
2023/03/12 14:14:47;;;;;;;;;;;;;;;5.51;71.24;100412.27;104326;1297;61255;-79
2023/03/12 14:17:34;;;;;;;;;;;;;;;5.51;71.20;100413.48;105448;1297;74103;-80
2023/03/12 14:20:22;;;;;;;;;;;;;;;5.52;71.27;100407.49;105398;1297;66710;-80
2023/03/12 14:23:12;;;;;;;;;;;;;;;5.52;71.23;100405.96;105315;1297;71508;-80
2023/03/12 14:26:01;;;;;;;;;;;;;;;5.51;71.11;100402.02;105352;1297;59393;-80
2023/03/12 14:28:50;;;;;;;;;;;;;;;5.50;71.20;100399.11;105343;1297;59981;-81
2023/03/12 14:31:36;;;;;;;;;;;;;;;5.49;71.01;100400.65;105333;1297;72443;-80
2023/03/12 14:34:26;;;;;;;;;;;;;;;5.48;70.99;100401.00;105477;1297;68519;-80
2023/03/12 14:37:15;;;;;;;;;;;;;;;5.48;71.09;100402.52;105339;1297;73259;-80
2023/03/12 14:40:18;;;;;;;;;;;;;;;5.51;71.16;100402.19;105280;1297;59399;-80
2023/03/12 14:43:20;;;;;;;;;;;;;;;5.51;71.00;100396.20;105450;1297;59038;-80
2023/03/12 14:46:13;;;;;;;;;;;;;;;5.52;71.03;100396.90;105505;1297;74754;-80
2023/03/12 14:48:59;;;;;;;;;;;;;;;5.53;70.92;100386.98;105373;1297;68640;-80
2023/03/12 14:51:45;;;;;;;;;;;;;;;5.52;70.94;100386.47;105748;1289;72705;-80
2023/03/12 14:54:30;;;;;;;;;;;;;;;5.49;70.74;100380.82;106077;1290;59356;-80
2023/03/12 14:57:19;;;;;;;;;;;;;;;5.44;70.82;100380.46;105976;1289;60001;-80
2023/03/12 15:00:13;;;;;;;;;;;;;;;5.43;70.90;100383.04;105049;1289;74397;-80
2023/03/12 15:03:03;;;;;;;;;;;;;;;5.42;70.94;100386.45;105080;1290;70399;-80
2023/03/12 15:05:50;;;;;;;;;;;;;;;5.39;70.76;100379.78;105155;1289;72519;-80
2023/03/12 15:08:38;;;;;;;;;;;;;;;5.32;70.65;100387.63;105029;1291;61260;-80
2023/03/12 15:11:26;;;;;;;;;;;;;;;5.27;70.66;100384.37;105002;1290;61239;-80